Time;durP1;ratioP1;P1;durP2;ratioP2;P2;SDS_P1;SDS_P2;PMS_P1;PMS_P2;Temp;Humidity;BMP_temperature;BMP_pressure;BME280_temperature;BME280_humidity;BME280_pressure;Samples;Min_cycle;Max_cycle;Signal;HPM_P1;HPM_P2
2023/06/24 15:59:22;;;;;;;7.93;5.70;;;27.00;99.90;;;;;;6134247;22;1542076;-87
2023/06/24 16:01:49;;;;;;;9.48;6.53;;;27.10;99.90;;;;;;6185292;23;20161;-87
2023/06/24 16:04:16;;;;;;;6.88;5.45;;;27.10;99.90;;;;;;6186880;23;20240;-93
2023/06/24 16:06:43;;;;;;;6.68;5.25;;;27.00;99.90;;;;;;6188378;23;20189;-94
2023/06/24 16:09:10;;;;;;;7.00;5.60;;;26.90;99.90;;;;;;6187874;23;20170;-94
2023/06/24 16:11:36;;;;;;;5.20;4.63;;;26.70;99.90;;;;;;6188026;23;20170;-95
2023/06/24 16:14:03;;;;;;;7.43;4.88;;;26.60;99.90;;;;;;6188257;23;20176;-94
2023/06/24 16:16:31;;;;;;;5.93;4.80;;;26.60;99.90;;;;;;6188095;23;20166;-94
2023/06/24 16:18:58;;;;;;;5.97;4.90;;;26.60;99.90;;;;;;6188089;23;20173;-94
2023/06/24 16:21:25;;;;;;;7.97;6.55;;;26.60;99.90;;;;;;6188427;23;20173;-94
2023/06/24 16:23:52;;;;;;;8.00;6.53;;;26.60;99.90;;;;;;6187849;23;20249;-95
2023/06/24 16:26:19;;;;;;;5.20;4.70;;;26.70;99.90;;;;;;6188607;23;20217;-93
2023/06/24 16:28:46;;;;;;;6.45;5.78;;;26.80;99.90;;;;;;6188293;23;20248;-93
2023/06/24 16:31:13;;;;;;;6.18;5.07;;;26.70;99.90;;;;;;6187987;23;20232;-93
2023/06/24 16:33:41;;;;;;;4.20;3.80;;;26.70;99.90;;;;;;6187968;23;20170;-94
2023/06/24 16:36:08;;;;;;;4.00;3.60;;;26.70;99.90;;;;;;6188269;23;20249;-94
2023/06/24 16:38:35;;;;;;;4.07;3.65;;;26.70;99.90;;;;;;6187848;23;20161;-94
2023/06/24 16:41:02;;;;;;;5.88;4.18;;;26.70;99.90;;;;;;6188102;23;20244;-93
2023/06/24 16:43:28;;;;;;;4.30;3.47;;;26.80;99.90;;;;;;6187754;23;20184;-94
2023/06/24 16:45:55;;;;;;;4.38;3.38;;;27.00;99.90;;;;;;6187569;23;20659;-93
2023/06/24 16:48:22;;;;;;;4.45;3.65;;;27.20;99.90;;;;;;6188218;23;20176;-94
2023/06/24 16:50:50;;;;;;;4.75;3.55;;;27.30;99.90;;;;;;6188301;23;20253;-94
2023/06/24 16:53:17;;;;;;;4.30;2.97;;;27.60;99.20;;;;;;6187959;23;20176;-94
2023/06/24 16:55:44;;;;;;;3.72;3.33;;;27.70;97.40;;;;;;6187572;23;20172;-92
2023/06/24 16:58:11;;;;;;;4.30;3.15;;;27.80;94.70;;;;;;6187522;23;20247;-92
2023/06/24 17:00:37;;;;;;;3.63;2.75;;;28.00;94.80;;;;;;6187593;23;20197;-92
2023/06/24 17:03:04;;;;;;;3.38;3.08;;;28.20;91.80;;;;;;6187751;23;20506;-92
2023/06/24 17:05:31;;;;;;;3.38;2.78;;;28.50;92.00;;;;;;6187380;23;20663;-94
2023/06/24 17:07:59;;;;;;;3.88;3.15;;;28.70;89.20;;;;;;6187796;23;20485;-93
2023/06/24 17:10:26;;;;;;;3.22;2.67;;;28.90;85.00;;;;;;6187313;23;20176;-93
2023/06/24 17:12:52;;;;;;;4.68;2.97;;;29.10;77.90;;;;;;6187948;23;20176;-93
2023/06/24 17:15:19;;;;;;;4.18;2.95;;;29.20;71.10;;;;;;6187882;23;20166;-92
2023/06/24 17:17:46;;;;;;;2.92;2.70;;;29.30;63.20;;;;;;6187770;23;20169;-92
2023/06/24 17:20:13;;;;;;;2.92;2.60;;;29.30;56.20;;;;;;6187265;23;20625;-93
2023/06/24 17:22:40;;;;;;;3.45;2.47;;;29.20;50.50;;;;;;6186683;23;20170;-92
2023/06/24 17:25:09;;;;;;;3.55;2.88;;;29.20;48.60;;;;;;6186788;23;20274;-93
2023/06/24 17:27:36;;;;;;;6.55;3.70;;;29.20;48.10;;;;;;6187358;23;20170;-92
2023/06/24 17:30:03;;;;;;;5.57;4.93;;;29.30;46.60;;;;;;6186772;23;20177;-93
2023/06/24 17:32:30;;;;;;;4.70;3.00;;;29.60;45.60;;;;;;6187442;23;20199;-94
2023/06/24 17:34:57;;;;;;;4.47;2.63;;;29.70;42.50;;;;;;6186691;23;20229;-93
2023/06/24 17:37:24;;;;;;;3.05;2.75;;;29.90;41.60;;;;;;6186967;23;20188;-93
2023/06/24 17:39:50;;;;;;;3.25;2.90;;;30.30;40.60;;;;;;6186981;23;20169;-93
2023/06/24 17:42:19;;;;;;;3.45;3.05;;;30.60;38.70;;;;;;6187134;23;20169;-92
2023/06/24 17:44:46;;;;;;;4.68;3.10;;;31.00;39.10;;;;;;6187351;23;20170;-93
2023/06/24 17:47:13;;;;;;;4.15;3.35;;;31.10;31.90;;;;;;6186743;23;20582;-94
2023/06/24 17:49:40;;;;;;;4.75;3.38;;;31.20;29.90;;;;;;6187116;23;20166;-93
2023/06/24 17:52:07;;;;;;;3.97;3.60;;;31.30;29.30;;;;;;6186872;23;20229;-94
2023/06/24 17:54:33;;;;;;;5.07;3.33;;;31.40;28.50;;;;;;6186840;23;20491;-93
2023/06/24 17:57:00;;;;;;;5.55;3.40;;;31.60;28.00;;;;;;6187373;23;20175;-93
2023/06/24 17:59:29;;;;;;;6.60;3.40;;;31.80;27.40;;;;;;6187276;23;20165;-93
2023/06/24 18:01:56;;;;;;;3.42;3.13;;;31.80;26.40;;;;;;6187135;23;20161;-93
2023/06/24 18:04:23;;;;;;;4.10;3.53;;;31.60;24.60;;;;;;6187070;23;20170;-94
2023/06/24 18:06:50;;;;;;;3.80;3.40;;;31.40;22.20;;;;;;6187123;23;20220;-93
2023/06/24 18:09:19;;;;;;;3.90;3.20;;;31.00;21.70;;;;;;6186269;23;20176;-93
2023/06/24 18:11:46;;;;;;;3.60;3.17;;;30.00;23.00;;;;;;6186894;23;20205;-93
2023/06/24 18:14:13;;;;;;;5.13;3.60;;;28.80;23.00;;;;;;6186469;23;20170;-93
2023/06/24 18:16:48;;;;;;;6.88;3.60;;;27.60;21.50;;;;;;6186717;23;20165;-93
2023/06/24 18:19:18;;;;;;;5.25;3.65;;;26.70;25.70;;;;;;6187379;23;20240;-93
2023/06/24 18:21:44;;;;;;;4.65;3.90;;;25.90;26.90;;;;;;6187260;23;20178;-93
2023/06/24 18:24:11;;;;;;;4.53;3.60;;;25.40;28.40;;;;;;6186911;23;20170;-94
2023/06/24 18:26:38;;;;;;;5.03;3.80;;;24.90;29.50;;;;;;6186897;23;20189;-93
2023/06/24 18:29:05;;;;;;;4.13;3.70;;;24.60;34.90;;;;;;6187141;23;20170;-93
2023/06/24 18:31:32;;;;;;;4.20;3.80;;;24.30;34.90;;;;;;6186919;23;20177;-94
2023/06/24 18:34:00;;;;;;;4.57;3.83;;;24.00;36.80;;;;;;6187177;23;20169;-94
2023/06/24 18:36:27;;;;;;;5.25;4.00;;;23.80;39.00;;;;;;6186859;23;20165;-94
2023/06/24 18:38:54;;;;;;;6.80;3.92;;;23.60;43.70;;;;;;6186942;23;20169;-95
2023/06/24 18:41:20;;;;;;;4.72;3.83;;;23.40;49.20;;;;;;6186936;23;20176;-94
2023/06/24 18:43:47;;;;;;;4.97;3.72;;;23.30;52.30;;;;;;6186525;23;20624;-94
2023/06/24 18:46:14;;;;;;;5.65;3.88;;;23.10;55.50;;;;;;6186512;23;20667;-93
2023/06/24 18:48:41;;;;;;;6.20;3.88;;;23.00;60.10;;;;;;6188581;23;20642;-92
2023/06/24 18:51:09;;;;;;;7.13;5.40;;;22.90;92.80;;;;;;6188619;23;20169;-93
2023/06/24 18:53:36;;;;;;;6.85;4.85;;;22.80;76.00;;;;;;6188474;23;20176;-93
2023/06/24 18:56:03;;;;;;;7.15;4.60;;;22.70;81.70;;;;;;6188882;23;20170;-94
2023/06/24 18:58:30;;;;;;;5.57;4.30;;;22.60;84.50;;;;;;6188802;23;20192;-93
2023/06/24 19:00:57;;;;;;;4.78;4.28;;;22.50;87.50;;;;;;6188251;23;20197;-92
2023/06/24 19:03:23;;;;;;;6.20;4.05;;;22.30;91.30;;;;;;6188330;23;20170;-92
2023/06/24 19:05:50;;;;;;;5.85;4.53;;;22.20;95.50;;;;;;6188648;23;20466;-93
2023/06/24 19:08:18;;;;;;;4.88;3.80;;;22.00;98.20;;;;;;6188044;23;20184;-93
2023/06/24 19:10:45;;;;;;;5.75;4.40;;;21.80;98.80;;;;;;6188613;23;20169;-93
2023/06/24 19:13:12;;;;;;;5.95;4.20;;;21.60;99.90;;;;;;6188966;23;20170;-93
2023/06/24 19:15:39;;;;;;;5.70;3.95;;;21.50;99.90;;;;;;6188799;23;20169;-94
2023/06/24 19:18:05;;;;;;;5.65;4.35;;;21.30;99.90;;;;;;6188278;23;20176;-93
2023/06/24 19:20:32;;;;;;;4.28;3.83;;;21.10;99.90;;;;;;6188686;23;20508;-94
2023/06/24 19:22:59;;;;;;;5.03;4.20;;;21.00;99.90;;;;;;6187175;23;20650;-94
2023/06/24 19:25:27;;;;;;;5.93;4.53;;;20.80;99.90;;;;;;6188632;23;20257;-93
2023/06/24 19:27:54;;;;;;;6.20;3.92;;;20.80;99.90;;;;;;6188804;23;20253;-94
2023/06/24 19:30:21;;;;;;;6.75;4.07;;;20.60;99.90;;;;;;6188382;23;20180;-93
2023/06/24 19:32:48;;;;;;;5.00;4.43;;;20.50;99.90;;;;;;6188412;23;20248;-94
2023/06/24 19:35:14;;;;;;;4.80;4.30;;;20.40;99.90;;;;;;6187885;23;20205;-93
2023/06/24 19:37:42;;;;;;;7.95;4.28;;;20.20;99.90;;;;;;6187452;23;20168;-94
2023/06/24 19:40:09;;;;;;;5.82;4.35;;;20.10;99.90;;;;;;6187814;23;20173;-94
2023/06/24 19:42:39;;;;;;;5.22;4.03;;;20.00;1.00;;;;;;6187978;23;20221;-93
2023/06/24 19:45:06;;;;;;;5.05;3.97;;;19.90;1.00;;;;;;6188164;23;20166;-94
2023/06/24 19:47:33;;;;;;;9.05;4.28;;;19.70;1.00;;;;;;6188444;23;20189;-94
2023/06/24 19:50:00;;;;;;;5.22;4.10;;;19.60;1.00;;;;;;6188591;23;20176;-93
2023/06/24 19:52:27;;;;;;;4.53;4.07;;;19.50;1.00;;;;;;6188552;23;20176;-93
2023/06/24 19:54:54;;;;;;;7.07;4.35;;;19.40;1.00;;;;;;6188153;23;20166;-92
2023/06/24 19:57:21;;;;;;;4.72;3.88;;;19.40;1.00;;;;;;6188095;23;20643;-93
2023/06/24 19:59:50;;;;;;;5.30;4.07;;;19.20;1.00;;;;;;6188069;23;20225;-92
2023/06/24 20:02:16;;;;;;;4.50;3.78;;;19.20;1.00;;;;;;6188073;23;20158;-93
2023/06/24 20:04:43;;;;;;;4.20;3.70;;;19.10;1.00;;;;;;6188443;23;20174;-93
2023/06/24 20:07:10;;;;;;;5.65;3.67;;;19.00;1.00;;;;;;6188289;23;20194;-93
2023/06/24 20:09:37;;;;;;;4.95;3.70;;;19.00;1.00;;;;;;6188397;23;20172;-93
2023/06/24 20:12:04;;;;;;;4.50;3.60;;;18.90;1.00;;;;;;6188157;23;20633;-95
2023/06/24 20:14:31;;;;;;;5.40;3.40;;;18.80;1.00;;;;;;6188621;23;20170;-94
2023/06/24 20:16:59;;;;;;;5.85;3.75;;;18.80;1.00;;;;;;6188505;23;20166;-93
2023/06/24 20:19:26;;;;;;;5.20;3.75;;;18.70;1.00;;;;;;6188093;23;20619;-94
2023/06/24 20:21:53;;;;;;;4.47;3.72;;;18.70;1.00;;;;;;6187911;23;20623;-94
2023/06/24 20:24:19;;;;;;;5.22;3.60;;;18.60;1.00;;;;;;6187957;23;20631;-94
2023/06/24 20:26:46;;;;;;;4.25;3.50;;;18.50;1.00;;;;;;6188417;23;20224;-94
2023/06/24 20:29:13;;;;;;;5.90;3.83;;;18.50;1.00;;;;;;6188317;23;20180;-94
2023/06/24 20:31:40;;;;;;;3.92;3.53;;;18.40;1.00;;;;;;6188271;23;20193;-94
2023/06/24 20:34:08;;;;;;;4.95;3.90;;;18.30;1.00;;;;;;6188349;23;20176;-94
2023/06/24 20:36:35;;;;;;;6.18;3.80;;;18.30;1.00;;;;;;6187892;23;20653;-93
2023/06/24 20:39:03;;;;;;;5.53;3.55;;;18.20;1.00;;;;;;6188445;23;20176;-93
2023/06/24 20:41:31;;;;;;;4.80;3.67;;;18.10;1.00;;;;;;6188226;23;20236;-94
2023/06/24 20:43:58;;;;;;;5.68;3.67;;;18.00;1.00;;;;;;6187515;23;20170;-94
2023/06/24 20:46:25;;;;;;;4.85;3.42;;;18.00;1.00;;;;;;6187852;23;20192;-94
2023/06/24 20:48:52;;;;;;;6.85;3.83;;;17.90;25.50;;;;;;6187851;23;20170;-94
2023/06/24 20:51:20;;;;;;;4.65;3.92;;;17.80;99.90;;;;;;6188050;23;20171;-94
2023/06/24 20:53:47;;;;;;;4.53;3.90;;;17.80;99.90;;;;;;6187745;23;20162;-94
2023/06/24 20:56:14;;;;;;;4.88;4.00;;;17.70;99.90;;;;;;6187825;23;20180;-94
2023/06/24 20:58:41;;;;;;;6.10;4.40;;;17.60;99.90;;;;;;6188077;23;20170;-94
2023/06/24 21:01:09;;;;;;;5.65;3.70;;;17.60;99.90;;;;;;6187612;23;20201;-94
2023/06/24 21:03:36;;;;;;;6.43;4.22;;;17.50;99.90;;;;;;6187450;23;20172;-94
2023/06/24 21:06:03;;;;;;;5.28;4.22;;;17.50;99.90;;;;;;6187993;23;20252;-95
2023/06/24 21:08:32;;;;;;;5.00;4.32;;;17.50;99.90;;;;;;6187840;23;20197;-95
2023/06/24 21:10:59;;;;;;;6.25;3.97;;;17.40;99.90;;;;;;6187386;23;20627;-93
2023/06/24 21:13:26;;;;;;;7.25;4.07;;;17.30;99.90;;;;;;6187374;23;20257;-94
2023/06/24 21:15:53;;;;;;;5.93;4.00;;;17.30;99.90;;;;;;6187843;23;20170;-94
2023/06/24 21:18:20;;;;;;;5.30;4.55;;;17.30;99.90;;;;;;6187882;23;20173;-94
2023/06/24 21:20:47;;;;;;;4.70;3.88;;;17.20;99.90;;;;;;6187796;23;20170;-94
2023/06/24 21:23:14;;;;;;;5.15;4.03;;;17.20;99.90;;;;;;6187763;23;20173;-93
2023/06/24 21:25:42;;;;;;;5.60;4.05;;;17.20;99.90;;;;;;6187774;23;20252;-94
2023/06/24 21:28:09;;;;;;;7.93;3.75;;;17.20;99.90;;;;;;6187162;23;20182;-94
2023/06/24 21:30:36;;;;;;;5.63;4.03;;;17.10;99.90;;;;;;6187848;23;20169;-93
2023/06/24 21:33:03;;;;;;;5.28;4.18;;;17.00;99.90;;;;;;6187574;23;20173;-93
2023/06/24 21:35:30;;;;;;;5.32;4.35;;;17.00;1.00;;;;;;6187183;23;20177;-94
2023/06/24 21:37:56;;;;;;;7.13;4.43;;;16.90;1.00;;;;;;6187561;23;20170;-94
2023/06/24 21:40:23;;;;;;;5.22;4.18;;;16.90;1.00;;;;;;6187500;23;20176;-94
2023/06/24 21:42:51;;;;;;;7.43;4.28;;;16.80;1.00;;;;;;6187686;23;20181;-94
2023/06/24 21:45:18;;;;;;;7.05;4.15;;;16.80;1.00;;;;;;6187120;23;20974;-94
2023/06/24 21:47:45;;;;;;;5.38;4.25;;;16.80;1.00;;;;;;6187142;23;20268;-94
2023/06/24 21:50:12;;;;;;;5.53;4.18;;;16.80;1.00;;;;;;6187320;23;20176;-94
2023/06/24 21:52:39;;;;;;;5.38;4.28;;;16.70;1.00;;;;;;6187618;23;20169;-94
2023/06/24 21:55:07;;;;;;;6.82;4.63;;;16.70;1.00;;;;;;6187597;23;20170;-94
2023/06/24 21:57:34;;;;;;;6.20;4.82;;;16.70;1.00;;;;;;6187291;23;20170;-94
2023/06/24 22:00:04;;;;;;;6.40;4.63;;;16.60;1.00;;;;;;6187053;23;20197;-94
2023/06/24 22:02:31;;;;;;;5.78;4.57;;;16.60;1.00;;;;;;6186845;23;20169;-95
2023/06/24 22:04:58;;;;;;;4.78;4.03;;;16.60;1.00;;;;;;6187322;23;20183;-93
2023/06/24 22:07:25;;;;;;;6.45;4.82;;;16.60;1.00;;;;;;6187320;23;20189;-94
2023/06/24 22:09:51;;;;;;;5.68;4.60;;;16.50;1.00;;;;;;6187545;23;20170;-94
2023/06/24 22:12:18;;;;;;;7.05;4.18;;;16.40;1.00;;;;;;6186999;23;20168;-94
2023/06/24 22:14:45;;;;;;;5.53;4.40;;;16.40;1.00;;;;;;6187234;23;20169;-94
2023/06/24 22:17:13;;;;;;;7.82;4.50;;;16.40;1.00;;;;;;6186721;23;20248;-95
2023/06/24 22:19:40;;;;;;;6.40;4.25;;;16.30;1.00;;;;;;6187386;23;20192;-94
2023/06/24 22:22:07;;;;;;;7.15;4.68;;;16.20;1.00;;;;;;6187162;23;20499;-95
2023/06/24 22:24:33;;;;;;;5.38;4.30;;;16.20;1.00;;;;;;6187403;23;20266;-95
2023/06/24 22:27:00;;;;;;;8.32;4.10;;;16.20;97.50;;;;;;6187126;23;20192;-94
2023/06/24 22:29:27;;;;;;;6.70;4.25;;;16.10;99.90;;;;;;6186990;23;20251;-94
2023/06/24 22:31:54;;;;;;;6.72;4.53;;;16.10;99.90;;;;;;6187809;23;20177;-94
2023/06/24 22:34:22;;;;;;;6.70;4.00;;;16.10;99.90;;;;;;6187265;23;20179;-94
2023/06/24 22:36:49;;;;;;;5.20;4.20;;;16.10;99.90;;;;;;6187194;23;20172;-94
2023/06/24 22:39:15;;;;;;;6.40;4.50;;;16.10;1.00;;;;;;6187124;23;20174;-94
2023/06/24 22:41:42;;;;;;;5.60;4.15;;;16.10;1.00;;;;;;6187210;23;20169;-94
2023/06/24 22:44:09;;;;;;;5.40;4.38;;;16.00;99.90;;;;;;6187109;23;20177;-94
2023/06/24 22:46:36;;;;;;;5.50;3.88;;;16.00;99.90;;;;;;6186761;23;20173;-94
2023/06/24 22:49:02;;;;;;;4.72;4.00;;;15.90;99.90;;;;;;6186826;23;20193;-95
2023/06/24 22:51:31;;;;;;;6.68;4.03;;;15.90;99.90;;;;;;6187044;23;20173;-93
2023/06/24 22:53:57;;;;;;;4.93;4.07;;;15.90;99.90;;;;;;6187234;23;20171;-94
2023/06/24 22:56:24;;;;;;;4.68;3.90;;;15.80;99.90;;;;;;6187185;23;20175;-95
2023/06/24 22:58:51;;;;;;;6.60;4.20;;;15.80;99.90;;;;;;6186934;23;20172;-95
2023/06/24 23:01:18;;;;;;;8.85;4.20;;;15.80;1.00;;;;;;6186983;23;20258;-94
2023/06/24 23:03:45;;;;;;;7.60;4.20;;;15.80;1.00;;;;;;6186778;23;20175;-94
2023/06/24 23:06:12;;;;;;;9.32;4.45;;;15.70;1.00;;;;;;6187262;23;20175;-95
2023/06/24 23:08:41;;;;;;;7.47;4.57;;;15.70;1.00;;;;;;6187016;23;20244;-95
2023/06/24 23:11:09;;;;;;;5.32;4.07;;;15.70;15.90;;;;;;6187003;23;20171;-94
2023/06/24 23:13:36;;;;;;;7.07;3.97;;;15.70;18.90;;;;;;6186369;23;20177;-95
2023/06/24 23:16:03;;;;;;;6.38;4.18;;;15.70;73.10;;;;;;6186747;23;20176;-94
2023/06/24 23:18:31;;;;;;;6.72;4.25;;;15.70;93.10;;;;;;6187108;23;20169;-94
2023/06/24 23:20:58;;;;;;;5.13;3.90;;;15.70;99.90;;;;;;6186931;23;20173;-95
2023/06/24 23:23:26;;;;;;;6.75;3.80;;;15.70;99.90;;;;;;6186492;23;20180;-94
2023/06/24 23:25:54;;;;;;;5.00;3.90;;;15.60;99.90;;;;;;6186920;23;20184;-94
2023/06/24 23:28:23;;;;;;;5.60;4.13;;;15.60;99.90;;;;;;6186710;23;20507;-94
2023/06/24 23:30:53;;;;;;;4.28;3.60;;;15.60;99.90;;;;;;6186908;23;20205;-95
2023/06/24 23:33:20;;;;;;;7.45;4.35;;;15.50;99.90;;;;;;6187118;23;20161;-95
2023/06/24 23:35:48;;;;;;;6.63;4.47;;;15.50;99.90;;;;;;6188692;23;20172;-94
2023/06/24 23:38:17;;;;;;;5.93;3.80;;;15.50;99.90;;;;;;6188666;23;20169;-94
2023/06/24 23:40:45;;;;;;;6.57;4.03;;;15.50;99.90;;;;;;6188968;23;20566;-94
2023/06/24 23:43:14;;;;;;;6.85;4.10;;;15.50;99.90;;;;;;6188431;23;20184;-95
2023/06/24 23:45:42;;;;;;;5.07;3.67;;;15.50;99.90;;;;;;6188309;23;20653;-94
2023/06/24 23:48:09;;;;;;;5.53;3.97;;;15.40;99.90;;;;;;6188471;23;20192;-94
2023/06/24 23:50:36;;;;;;;4.88;4.05;;;15.40;36.10;;;;;;6188234;23;20260;-95
2023/06/24 23:53:03;;;;;;;4.68;3.22;;;15.40;1.00;;;;;;6188241;23;20639;-94
2023/06/24 23:55:29;;;;;;;4.68;3.25;;;15.40;1.00;;;;;;6188473;23;20506;-95
2023/06/24 23:57:56;;;;;;;5.40;3.90;;;15.30;1.00;;;;;;6188451;23;20166;-94
